Logo AVAMET
Benvolgut visitant, si us plau, ingressa Recuperar contrasenya

Vilallonga el Pla de la Llacuna

Dades diàries. Acumulats / Últims 30 dies disponibles

Data Temperatura (°C) Humitat rel. (%) Pressió rel. (hPa) Vent (km/h) Precipitació
Mínima Mitjana Màxima Amplitud
tèrmica
Mínima Mitjana Màxima Mínima Mitjana Màxima Predom. Mitjana Ràfega
màxima
Total
(mm)
Índex-n
Mínima Mitjana Màxima Mínima Mitjana Màxima n
0 a 1
P0 max
mm 5'
Dades mensuals acumulades fins l'últim dia disponible
01/2020 3,0 5,7 10,5 9,0 8,4 13,2 17,3 14,3 29 79 100 1.012 1.025 1.034   4,2 69,2 463,2
Dades anuals acumulades fins l'últim dia disponible
2020 3,0 5,7 10,5 9,0 8,4 13,2 17,3 14,3 29 79 100 1.012 1.025 1.034   4,2 69,2 463,2
Últims 30 dies disponibles
28-01-2020 10,5     12,4     14,7 4,2 67 74 79 1.021 1.021 1.023 O 16,3 67,6 0,0
27-01-2020 4,5     9,5     13,6 9,1 56 70 87 1.020 1.023 1.025 OSO 12,7 56,3 0,0
26-01-2020 6,5     10,0     14,1 7,6 60 79 98 1.018 1.021 1.025 OSO 6,3 40,2 0,2
25-01-2020 7,2     8,8     10,9 3,7 92 97 99 1.017 1.019 1.021 E 0,7 11,3 0,2
24-01-2020 7,1     8,6     10,1 3,0 96 99 99 1.020 1.021 1.023 ENE 1,3 12,9 0,0
23-01-2020 4,8     7,1     10,4 5,6 91 97 99 1.018 1.020 1.023 SSE 0,5 11,3 0,4
22-01-2020 5,6     7,8     10,7 5,1 91 97 99 1.016 1.018 1.019 ESE 1,4 17,7 2,4
21-01-2020 5,7     7,9     10,6 4,9 99 99 100 1.012 1.015 1.019 SE 3,8 46,7 74,2 0,77 8,40
20-01-2020 3,0     5,8     8,4 5,4 98 99 99 1.017 1.018 1.020 E 13,0 69,2 244,4 0,64 6,00
19-01-2020 4,2     8,1     13,2 9,0 71 86 98 1.013 1.016 1.019 S 9,2 67,6 122,8 0,52 3,90
18-01-2020 7,8     11,2     15,0 7,2 54 67 80 1.020 1.027 1.032 OSO 5,3 32,2 0,0
17-01-2020 8,8     12,4     15,4 6,6 42 55 69 1.027 1.028 1.032 O 9,8 45,1 0,0
16-01-2020 8,1     12,4     16,1 8,0 61 68 81 1.025 1.027 1.028 SSO 3,5 27,4 0,0
15-01-2020 5,1     8,4     15,4 10,3 55 68 78 1.023 1.024 1.027 OSO 6,5 29,0 0,0
14-01-2020 5,6     9,6     14,3 8,7 40 53 74 1.020 1.021 1.023 SO 5,4 41,8 0,0
13-01-2020 3,9     9,6     15,1 11,2 29 43 54 1.022 1.025 1.029 OSO 4,4 25,7 0,0
12-01-2020 4,2     7,7     13,3 9,1 34 61 86 1.028 1.029 1.030 S 1,1 20,9 0,0
11-01-2020 5,8     8,1     12,0 6,2 45 75 91 1.028 1.030 1.032 SSE 2,9 17,7 0,0
10-01-2020 6,4     9,0     12,1 5,7 65 79 97 1.022 1.025 1.029 SSE 6,0 33,8 17,6 0,40 1,30
09-01-2020 5,1     8,5     12,1 7,0 66 85 95 1.024 1.027 1.030 SSE 1,2 16,1 0,0
08-01-2020 5,8     9,0     12,1 6,3 53 77 94 1.027 1.029 1.031 ESE 1,0 16,1 0,0
07-01-2020 3,7     8,8     15,8 12,1 64 80 96 1.028 1.030 1.032 SSE 0,7 11,3 0,2
06-01-2020 5,0     8,2     13,9 8,9 68 85 97 1.027 1.028 1.030 S 0,7 11,3 0,0
05-01-2020 5,8     9,8     17,3 11,5 51 68 81 1.027 1.029 1.031 SE 0,7 11,3 0,0
04-01-2020 4,8     7,9     12,2 7,4 66 79 97 1.031 1.032 1.034 SSE 0,8 14,5 0,0
03-01-2020 5,0     8,7     14,8 9,8 55 83 98 1.029 1.030 1.033 SSE 0,7 19,3 0,2
02-01-2020 4,3     7,4     12,3 8,0 83 93 98 1.030 1.031 1.033 E 0,4 8,0 0,4
01-01-2020 4,8     7,9     12,9 8,1 78 88 98 1.030 1.031 1.033 NE 0,5 9,7 0,2
31-12-2019 3,9     7,1     10,9 7,0 77 91 97 1.031 1.032 1.034 ESE 0,3 9,7 0,4
30-12-2019 6,1     8,2     11,2 5,1 78 90 96 1.031 1.032 1.034 SSE 0,6 9,7 0,0
Últims 13 mesos disponibles
12/2019 3,9 8,9 15,8 12,2 9,2 15,6 22,7 18,8 35 71 98 1.002 1.018 1.032 O 7,3 93,3 397,4
11/2019 2,6 9,3 17,9 12,5 11,5 15,9 23,7 21,1 52 65 81 999 1.010 1.018 O 11,0 67,6 24,4
10/2019 8,9 14,0 17,3 18,1 14,0 22,3 30,4 21,5 29 69 94 1.008 1.016 1.021 OSO 4,2 51,5 84,2
09/2019 11,9 17,2 20,9 20,8 18,1 24,5 31,4 19,5 47 81 100 1.009 1.017 1.023 ENE 3,2 80,5 331,8
08/2019 16,6 19,4 26,3 24,4 23,7 29,6 38,6 22,0 30 71 91 1.009 1.015 1.019 E 2,9 37,0 212,2
07/2019 17,6 19,4 23,2 24,9 24,5 30,1 37,1 19,5 37 64 89 1.005 1.013 1.021 ENE 3,2 59,5 1,0
06/2019 9,6 15,2 20,7 20,8 18,3 26,2 34,7 25,1 37 62 90 1.008 1.014 1.021 E 3,2 51,5 1,8
05/2019 7,2 11,8 18,6 16,6 15,9 21,9 28,7 21,5 51 69 87 1.005 1.015 1.024 SE 3,7 56,3 22,6
04/2019 5,9 9,4 13,5 12,9 10,7 17,1 25,9 20,0 35 72 100 999 1.013 1.024 OSO 6,8 61,2 542,6
03/2019 4,1 8,3 14,4 12,7 10,4 17,2 25,0 20,9 31 59 97 1.009 1.022 1.030 SE 4,3 74,0 137,2
02/2019 2,1 6,0 11,8 10,5 8,9 14,9 21,4 19,3 28 62 92 995 1.024 1.033 SSE 4,1 75,6 0,8
01/2019 1,1 5,9 10,2 9,8 8,9 13,9 18,9 17,8 34 57 83 1.002 1.019 1.031 OSO 5,9 62,8 15,2
12/2018 4,2 8,6 15,4 12,7 10,3 17,3 24,7 20,5 35 62 97 1.008 1.025 1.030 OSO 5,2 62,8 32,4
Tots els anys disponibles
2019 1,1 12,1 26,3 16,4 8,9 20,8 38,6 37,5 28 67 100 995 1.016 1.033 E 5,0 93,3 1.771,2
Temperatura (°C)
Humitat relativa (%)
Velocitat del vent i ràfega màxima (km/h)
Direcció del vent (°)
Pressió (hPa)
Precipitació (mm)
Nota sobre les dades: s'avisa a l'usuari de la provisionalitat i no oficialitat d'aquestes dades
Logo AVAMET blanc
Web allotjada a Sollutia
Llicència de Creative CommonsLa web d'AVAMET i els seus continguts estan subjectes a una llicència de
Reconeixement - No Comercial - Compartir igual
Últimes estacions: Xixona - Els Ameradors (Soci), Agres - El Tossal (Soci), Xàbia - Bevenguts (MeteoXàbia), Llíria (Aj. Soci/Inforatge), Orihuela - Lo Capitán, Cox & Guardamar del Segura - horta (Meteorihuela), l'Alcúdia - Carriona & el Real de Gandia (Inforatge), Benicàssim - les Vil·les (Soci),  l'Alfàs del Pi - l'Albir (Soci), - - -